Time;durP1;ratioP1;P1;durP2;ratioP2;P2;SDS_P1;SDS_P2;PMS_P1;PMS_P2;Temp;Humidity;BMP_temperature;BMP_pressure;BME280_temperature;BME280_humidity;BME280_pressure;Samples;Min_cycle;Max_cycle;Signal;HPM_P1;HPM_P2
2022/11/27 00:01:59;;;;;;;7.40;2.00;;;5.60;99.90;;;;;;4998963;28;20027;-79
2022/11/27 00:04:24;;;;;;;10.15;3.08;;;5.60;99.90;;;;;;4980304;28;20161;-80
2022/11/27 00:06:50;;;;;;;12.07;3.05;;;5.50;99.90;;;;;;4986439;28;20087;-78
2022/11/27 00:09:16;;;;;;;7.18;2.38;;;5.50;99.90;;;;;;5003988;28;20030;-79
2022/11/27 00:11:41;;;;;;;4.60;1.92;;;5.50;99.90;;;;;;5011266;28;20033;-80
2022/11/27 00:14:10;;;;;;;12.93;2.58;;;5.50;99.90;;;;;;5001097;28;20034;-80
2022/11/27 00:16:35;;;;;;;5.78;1.75;;;5.60;99.90;;;;;;5021663;28;20072;-79
2022/11/27 00:19:01;;;;;;;13.13;2.65;;;5.50;99.90;;;;;;5012999;28;20029;-79
2022/11/27 00:21:28;;;;;;;5.65;1.73;;;5.50;99.90;;;;;;5010149;28;20025;-79
2022/11/27 00:23:54;;;;;;;5.82;2.42;;;5.50;99.90;;;;;;5018485;28;20034;-79
2022/11/27 00:26:20;;;;;;;6.60;1.95;;;5.50;99.90;;;;;;5008134;28;20068;-79
2022/11/27 00:28:45;;;;;;;12.88;3.05;;;5.50;99.90;;;;;;4992725;28;20485;-79
2022/11/27 00:31:19;;;;;;;10.25;2.45;;;5.50;99.90;;;;;;4993081;28;20041;-79
2022/11/27 00:33:45;;;;;;;6.65;2.00;;;5.50;99.90;;;;;;5020019;28;20084;-79
2022/11/27 00:36:10;;;;;;;9.18;2.83;;;5.50;99.90;;;;;;5005220;28;20026;-79
2022/11/27 00:38:37;;;;;;;5.22;2.38;;;5.40;99.90;;;;;;5007126;28;20053;-79
2022/11/27 00:41:29;;;;;;;13.18;2.95;;;5.50;99.90;;;;;;4986332;28;20663;-79
2022/11/27 00:43:54;;;;;;;6.30;1.58;;;5.50;99.90;;;;;;5004513;28;20598;-79
2022/11/27 00:46:25;;;;;;;8.35;1.58;;;5.40;99.90;;;;;;5020513;28;20173;-79
2022/11/27 00:48:51;;;;;;;8.65;2.10;;;5.40;99.90;;;;;;5021948;28;20125;-79
2022/11/27 00:51:18;;;;;;;10.20;2.97;;;5.40;99.90;;;;;;5006139;28;20049;-79
2022/11/27 00:53:44;;;;;;;7.68;2.47;;;5.40;99.90;;;;;;5021014;28;20022;-79
2022/11/27 00:56:14;;;;;;;7.40;2.80;;;5.40;99.90;;;;;;5010284;28;20048;-79
2022/11/27 00:58:39;;;;;;;8.25;2.35;;;5.30;99.90;;;;;;5024793;28;20029;-79
2022/11/27 01:01:05;;;;;;;3.90;1.13;;;5.30;99.90;;;;;;5008525;28;20037;-79
2022/11/27 01:03:31;;;;;;;7.25;2.70;;;5.30;99.90;;;;;;5008256;28;20029;-80
2022/11/27 01:06:00;;;;;;;7.43;1.75;;;5.40;99.90;;;;;;5008169;28;20037;-79
2022/11/27 01:08:26;;;;;;;6.25;2.10;;;5.30;99.90;;;;;;4995553;28;20033;-80
2022/11/27 01:10:54;;;;;;;4.90;2.85;;;5.40;99.90;;;;;;5018667;28;20509;-80
2022/11/27 01:13:28;;;;;;;5.63;2.72;;;5.40;99.90;;;;;;5020974;28;20038;-80
2022/11/27 01:16:00;;;;;;;5.82;2.35;;;5.30;99.90;;;;;;4975817;28;21122;-79
2022/11/27 01:18:26;;;;;;;7.25;2.38;;;5.30;99.90;;;;;;4998614;28;20092;-80
2022/11/27 01:20:52;;;;;;;7.68;1.98;;;5.30;99.90;;;;;;4990219;28;20030;-80
2022/11/27 01:23:17;;;;;;;8.57;2.88;;;5.30;99.90;;;;;;4985384;28;20057;-80
2022/11/27 01:25:43;;;;;;;5.55;3.00;;;5.40;99.90;;;;;;5018225;28;20589;-79
2022/11/27 01:28:08;;;;;;;5.40;2.00;;;5.30;99.90;;;;;;5017262;28;20037;-80
2022/11/27 01:30:39;;;;;;;2.72;1.58;;;5.30;99.90;;;;;;5018615;28;20026;-79
2022/11/27 01:33:05;;;;;;;9.23;1.67;;;5.30;99.90;;;;;;5008404;28;20058;-80
2022/11/27 01:35:31;;;;;;;6.60;2.67;;;5.30;99.90;;;;;;5003493;28;20057;-80
2022/11/27 01:37:56;;;;;;;5.28;2.50;;;5.20;99.90;;;;;;4989692;28;20030;-80
2022/11/27 01:40:22;;;;;;;12.57;2.88;;;5.20;99.90;;;;;;4990417;28;20109;-80
2022/11/27 01:42:47;;;;;;;7.82;2.55;;;5.20;99.90;;;;;;5001521;28;20501;-80
2022/11/27 01:45:14;;;;;;;6.28;2.70;;;5.20;99.90;;;;;;4994422;28;20490;-80
2022/11/27 01:47:49;;;;;;;7.45;2.85;;;5.20;99.90;;;;;;4974330;28;20069;-80
2022/11/27 01:50:28;;;;;;;5.18;2.28;;;5.20;99.90;;;;;;4985736;28;20038;-79
2022/11/27 01:52:56;;;;;;;6.35;2.45;;;5.20;99.90;;;;;;4975722;28;20117;-80
2022/11/27 01:55:27;;;;;;;8.75;2.78;;;5.20;99.90;;;;;;4982150;28;20058;-79
2022/11/27 01:57:56;;;;;;;10.88;2.63;;;5.20;99.90;;;;;;5003099;28;20386;-80
2022/11/27 02:00:28;;;;;;;7.85;2.58;;;5.10;99.90;;;;;;4987632;28;20034;-80
2022/11/27 02:02:53;;;;;;;1.15;0.63;;;5.10;99.90;;;;;;4982269;28;20488;-80
2022/11/27 02:05:22;;;;;;;6.60;1.92;;;5.20;99.90;;;;;;4992367;28;20041;-80
2022/11/27 02:07:48;;;;;;;7.13;2.72;;;5.10;99.90;;;;;;5007859;28;20036;-80
2022/11/27 02:10:14;;;;;;;7.25;3.10;;;5.20;99.90;;;;;;5007182;28;20034;-80
2022/11/27 02:13:00;;;;;;;8.75;3.28;;;5.10;99.90;;;;;;5020235;28;20041;-80
2022/11/27 02:15:29;;;;;;;7.40;2.10;;;5.20;99.90;;;;;;5017383;28;20026;-80
2022/11/27 02:18:24;;;;;;;7.47;2.67;;;5.20;99.90;;;;;;4988078;28;20091;-80
2022/11/27 02:20:55;;;;;;;7.85;2.65;;;5.20;99.90;;;;;;5004193;28;20065;-80
2022/11/27 02:23:45;;;;;;;7.95;3.05;;;5.10;99.90;;;;;;4998767;28;20117;-80
2022/11/27 02:26:19;;;;;;;11.35;3.10;;;5.10;99.90;;;;;;4999027;28;20374;-80
2022/11/27 02:29:03;;;;;;;8.18;2.35;;;5.00;99.90;;;;;;4996509;28;20048;-80
2022/11/27 02:31:45;;;;;;;9.15;3.08;;;5.00;99.90;;;;;;4984400;28;20054;-80
2022/11/27 02:34:24;;;;;;;9.57;3.53;;;5.00;99.90;;;;;;4988672;28;20736;-80
2022/11/27 02:36:58;;;;;;;10.02;3.15;;;5.00;99.90;;;;;;5015969;28;20033;-79
2022/11/27 02:39:26;;;;;;;8.45;3.00;;;5.00;99.90;;;;;;5013989;28;20048;-79
2022/11/27 02:41:56;;;;;;;8.13;2.63;;;5.00;99.90;;;;;;5005812;28;20030;-80
2022/11/27 02:44:22;;;;;;;4.38;2.90;;;5.00;99.90;;;;;;5000639;28;20045;-80
2022/11/27 02:46:53;;;;;;;6.07;2.45;;;5.00;99.90;;;;;;5018666;28;20029;-80
2022/11/27 02:49:19;;;;;;;6.20;3.38;;;5.00;99.90;;;;;;5008034;28;20071;-80
2022/11/27 02:51:50;;;;;;;4.32;2.38;;;5.10;99.90;;;;;;4991239;28;20075;-79
2022/11/27 02:54:18;;;;;;;3.05;1.80;;;4.90;99.90;;;;;;5008752;28;20049;-80
2022/11/27 02:56:46;;;;;;;4.10;2.38;;;4.90;99.90;;;;;;4986948;28;20093;-80
2022/11/27 02:59:12;;;;;;;5.38;2.55;;;4.90;99.90;;;;;;5008917;28;20064;-80
2022/11/27 03:01:40;;;;;;;3.58;2.40;;;4.90;99.90;;;;;;5001499;28;20525;-80
2022/11/27 03:04:07;;;;;;;8.35;2.70;;;4.90;99.90;;;;;;4990770;28;20034;-80
2022/11/27 03:06:37;;;;;;;5.43;2.85;;;4.80;99.90;;;;;;4965773;28;20034;-80
2022/11/27 03:09:17;;;;;;;7.18;2.55;;;4.90;99.90;;;;;;4982371;28;20084;-80
2022/11/27 03:11:42;;;;;;;7.13;2.05;;;4.90;99.90;;;;;;4970476;28;20137;-79
2022/11/27 03:14:08;;;;;;;5.63;2.80;;;4.90;99.90;;;;;;4972665;28;20228;-79
2022/11/27 03:16:55;;;;;;;5.80;2.92;;;4.90;99.90;;;;;;4967033;28;20109;-79
2022/11/27 03:19:36;;;;;;;5.22;3.08;;;4.90;99.90;;;;;;4987891;28;20036;-79
2022/11/27 03:22:02;;;;;;;7.32;2.33;;;4.90;99.90;;;;;;4999889;28;20065;-80
2022/11/27 03:24:28;;;;;;;5.70;2.63;;;4.90;99.90;;;;;;5017320;28;20045;-80
2022/11/27 03:26:55;;;;;;;9.70;4.07;;;4.90;99.90;;;;;;4992605;28;20033;-79
2022/11/27 03:29:40;;;;;;;7.13;2.72;;;4.80;99.90;;;;;;5010438;28;20056;-81
2022/11/27 03:32:05;;;;;;;7.93;3.10;;;4.80;99.90;;;;;;4993945;28;20042;-81
2022/11/27 03:34:31;;;;;;;7.97;3.15;;;4.90;99.90;;;;;;5006877;28;20499;-80
2022/11/27 03:36:56;;;;;;;5.72;2.10;;;4.80;99.90;;;;;;4990191;28;20087;-80
2022/11/27 03:39:22;;;;;;;4.63;2.85;;;4.80;99.90;;;;;;4989149;28;20120;-83
2022/11/27 03:42:08;;;;;;;10.05;2.75;;;4.90;99.90;;;;;;5000148;28;20038;-83
2022/11/27 03:45:04;;;;;;;7.28;3.08;;;4.80;99.90;;;;;;5024400;28;20036;-81
2022/11/27 03:47:51;;;;;;;7.75;3.08;;;4.90;99.90;;;;;;5011847;28;20041;-82
2022/11/27 03:50:21;;;;;;;6.45;3.22;;;4.80;99.90;;;;;;5002156;28;20033;-82
2022/11/27 03:52:53;;;;;;;11.98;4.35;;;4.80;99.90;;;;;;4997655;28;20028;-81
2022/11/27 03:55:25;;;;;;;6.72;3.25;;;4.90;99.90;;;;;;4989347;28;20030;-81
2022/11/27 03:58:04;;;;;;;10.63;3.78;;;4.90;99.90;;;;;;5021001;28;20058;-82
2022/11/27 04:00:30;;;;;;;6.13;2.30;;;5.00;99.90;;;;;;4982481;28;20508;-82
2022/11/27 04:02:55;;;;;;;8.68;2.97;;;4.90;99.90;;;;;;4972983;28;20033;-83
2022/11/27 04:05:24;;;;;;;8.52;3.33;;;5.00;99.90;;;;;;5020900;28;20470;-82
2022/11/27 04:07:50;;;;;;;8.82;3.08;;;5.00;99.90;;;;;;5012649;28;20060;-81
2022/11/27 04:10:15;;;;;;;14.48;3.78;;;5.00;99.90;;;;;;5011459;28;20033;-81
2022/11/27 04:12:41;;;;;;;10.10;3.50;;;5.00;99.90;;;;;;4996345;28;20113;-82
2022/11/27 04:15:07;;;;;;;8.13;3.00;;;5.00;99.90;;;;;;5010446;28;20048;-82
2022/11/27 04:17:32;;;;;;;10.35;3.40;;;5.10;99.90;;;;;;4996659;28;20030;-82
2022/11/27 04:19:58;;;;;;;6.45;3.28;;;5.00;99.90;;;;;;5007472;28;20097;-81
2022/11/27 04:22:24;;;;;;;11.45;4.07;;;5.10;99.90;;;;;;4996723;28;20525;-82
2022/11/27 04:24:49;;;;;;;7.93;3.30;;;5.10;99.90;;;;;;5021237;28;21094;-82
2022/11/27 04:27:15;;;;;;;7.65;2.63;;;5.10;99.90;;;;;;4996598;28;20079;-81
2022/11/27 04:29:40;;;;;;;8.02;3.78;;;5.10;99.90;;;;;;5011714;28;20072;-82
2022/11/27 04:32:06;;;;;;;7.97;3.60;;;5.10;99.90;;;;;;4980204;28;20059;-82
2022/11/27 04:34:32;;;;;;;9.73;3.70;;;5.10;99.90;;;;;;5019473;28;20088;-81
2022/11/27 04:36:57;;;;;;;10.45;4.95;;;5.10;99.90;;;;;;5007428;28;20034;-82
2022/11/27 04:39:23;;;;;;;12.45;3.65;;;5.00;99.90;;;;;;5010410;28;20037;-82
2022/11/27 04:41:48;;;;;;;6.97;3.78;;;5.10;99.90;;;;;;5020532;28;20053;-81
2022/11/27 04:44:14;;;;;;;10.30;3.85;;;5.20;99.90;;;;;;5023178;28;20390;-81
2022/11/27 04:46:39;;;;;;;7.32;2.92;;;5.20;99.90;;;;;;5030077;28;20087;-82
2022/11/27 04:49:05;;;;;;;12.07;4.82;;;5.10;99.90;;;;;;5015750;28;20043;-82
2022/11/27 04:51:30;;;;;;;7.07;3.50;;;5.20;99.90;;;;;;5020768;28;20030;-83
2022/11/27 04:53:56;;;;;;;11.55;3.80;;;5.20;99.90;;;;;;5009735;28;20106;-82
2022/11/27 04:56:22;;;;;;;10.15;3.58;;;5.30;99.90;;;;;;4988496;28;20141;-82
2022/11/27 04:58:47;;;;;;;8.95;4.18;;;5.30;99.90;;;;;;5006515;28;20038;-82
2022/11/27 05:01:19;;;;;;;9.07;3.90;;;5.30;99.90;;;;;;5005418;28;20033;-82
2022/11/27 05:03:46;;;;;;;7.43;3.83;;;5.30;99.90;;;;;;5025014;28;20569;-82
2022/11/27 05:06:12;;;;;;;13.57;4.80;;;5.30;99.90;;;;;;5004965;28;20422;-81
2022/11/27 05:08:37;;;;;;;12.23;4.30;;;5.30;99.90;;;;;;4991347;28;20038;-82
2022/11/27 05:11:05;;;;;;;7.00;3.50;;;5.30;99.90;;;;;;4991601;28;20037;-82
2022/11/27 05:13:31;;;;;;;7.93;4.05;;;5.40;99.90;;;;;;4978603;28;20121;-83
2022/11/27 05:15:56;;;;;;;8.10;3.92;;;5.40;99.90;;;;;;5010035;28;20109;-82
2022/11/27 05:18:29;;;;;;;9.75;3.95;;;5.40;99.90;;;;;;5011651;28;20029;-83
2022/11/27 05:20:58;;;;;;;7.97;3.65;;;5.40;99.90;;;;;;5024517;28;20507;-82
2022/11/27 05:23:31;;;;;;;8.32;3.30;;;5.40;99.90;;;;;;5028374;28;20033;-82
2022/11/27 05:25:57;;;;;;;8.52;3.78;;;5.40;99.90;;;;;;5003742;28;20041;-82
2022/11/27 05:28:22;;;;;;;7.88;3.88;;;5.40;99.90;;;;;;5009657;28;20044;-82
2022/11/27 05:30:48;;;;;;;6.55;3.67;;;5.40;99.90;;;;;;4992481;28;20481;-81
2022/11/27 05:33:14;;;;;;;7.57;3.75;;;5.40;99.90;;;;;;4989890;28;20465;-81
2022/11/27 05:35:40;;;;;;;10.13;3.53;;;5.50;99.90;;;;;;5004643;28;20050;-83
2022/11/27 05:38:05;;;;;;;6.68;3.63;;;5.40;99.90;;;;;;4972816;28;21124;-83
2022/11/27 05:40:31;;;;;;;8.95;3.83;;;5.40;99.90;;;;;;4997646;28;20031;-82
2022/11/27 05:42:58;;;;;;;9.20;3.80;;;5.50;99.90;;;;;;4988967;28;20038;-82
2022/11/27 05:45:23;;;;;;;5.65;3.05;;;5.50;99.90;;;;;;4996064;28;20589;-83
2022/11/27 05:47:49;;;;;;;6.30;3.60;;;5.50;99.90;;;;;;4983538;28;20057;-82
2022/11/27 05:50:14;;;;;;;8.93;4.25;;;5.50;99.90;;;;;;4999030;28;20177;-83
2022/11/27 05:52:40;;;;;;;8.43;3.67;;;5.50;99.90;;;;;;5006109;28;20034;-82
2022/11/27 05:55:11;;;;;;;8.40;3.97;;;5.60;99.90;;;;;;5004477;28;20036;-82
2022/11/27 05:57:37;;;;;;;6.82;2.92;;;5.50;99.90;;;;;;4989524;28;20042;-81
2022/11/27 06:00:04;;;;;;;10.90;3.60;;;5.60;99.90;;;;;;4967674;28;20030;-82
2022/11/27 06:02:30;;;;;;;8.57;3.70;;;5.60;99.90;;;;;;4971068;28;20482;-81
2022/11/27 06:04:55;;;;;;;9.13;3.63;;;5.60;99.90;;;;;;5004485;28;20075;-81
2022/11/27 06:07:23;;;;;;;12.80;4.80;;;5.60;99.90;;;;;;4966680;28;20081;-82
2022/11/27 06:09:48;;;;;;;9.77;3.80;;;5.60;99.90;;;;;;4987547;28;20041;-82
2022/11/27 06:12:14;;;;;;;7.85;3.35;;;5.60;99.90;;;;;;5023301;28;20022;-82
2022/11/27 06:14:39;;;;;;;9.50;4.05;;;5.50;99.90;;;;;;5008046;28;20058;-82
2022/11/27 06:17:05;;;;;;;7.20;4.38;;;5.60;99.90;;;;;;5022650;28;20083;-82
2022/11/27 06:19:30;;;;;;;9.90;4.80;;;5.60;99.90;;;;;;5024299;28;20026;-82
2022/11/27 06:21:57;;;;;;;7.28;3.85;;;5.60;99.90;;;;;;5022566;28;20057;-81
2022/11/27 06:24:23;;;;;;;8.88;3.70;;;5.60;99.90;;;;;;5002995;28;20034;-82
2022/11/27 06:26:48;;;;;;;5.47;2.83;;;5.60;99.90;;;;;;5006209;28;20026;-83
2022/11/27 06:29:14;;;;;;;7.70;3.40;;;5.60;99.90;;;;;;4984680;28;20034;-82
2022/11/27 06:31:40;;;;;;;13.30;4.45;;;5.60;99.90;;;;;;4985330;28;20030;-82
2022/11/27 06:34:07;;;;;;;10.50;4.05;;;5.60;99.90;;;;;;5002997;28;20030;-82
2022/11/27 06:36:34;;;;;;;10.05;4.22;;;5.70;99.90;;;;;;4987354;28;20030;-82
2022/11/27 06:39:01;;;;;;;7.25;4.10;;;5.70;99.90;;;;;;4973938;28;20030;-82
2022/11/27 06:41:27;;;;;;;8.95;3.70;;;5.60;99.90;;;;;;5008771;28;20492;-82
2022/11/27 06:43:53;;;;;;;7.63;4.32;;;5.70;99.90;;;;;;5019337;28;20037;-83
2022/11/27 06:46:21;;;;;;;9.65;4.55;;;5.70;99.90;;;;;;5016014;28;20104;-83
2022/11/27 06:48:49;;;;;;;7.70;3.78;;;5.70;99.90;;;;;;5010947;28;20021;-82
2022/11/27 06:51:16;;;;;;;10.55;4.25;;;5.70;99.90;;;;;;5005522;28;20112;-83
2022/11/27 06:53:42;;;;;;;11.20;4.35;;;5.70;99.90;;;;;;5023898;28;20033;-82
2022/11/27 06:56:13;;;;;;;8.70;3.08;;;5.70;99.90;;;;;;5018212;28;20478;-82
2022/11/27 06:58:38;;;;;;;8.20;3.78;;;5.80;99.90;;;;;;5010588;28;20103;-81
2022/11/27 07:01:08;;;;;;;7.72;3.13;;;5.80;99.90;;;;;;4986730;28;20612;-82
2022/11/27 07:03:34;;;;;;;8.98;3.35;;;5.80;99.90;;;;;;4985997;28;20055;-83
2022/11/27 07:06:00;;;;;;;10.13;4.05;;;5.80;99.90;;;;;;5023425;28;20402;-84
2022/11/27 07:08:25;;;;;;;9.48;3.90;;;5.80;99.90;;;;;;5020766;28;20516;-82
2022/11/27 07:10:51;;;;;;;10.65;4.13;;;5.80;99.90;;;;;;5010612;28;20030;-82
2022/11/27 07:13:17;;;;;;;8.98;4.43;;;5.80;99.90;;;;;;5018748;28;20044;-82
2022/11/27 07:15:43;;;;;;;7.35;4.05;;;5.80;99.90;;;;;;5007178;28;20095;-82
2022/11/27 07:18:09;;;;;;;6.22;3.35;;;5.80;99.90;;;;;;5018694;28;20436;-83
2022/11/27 07:20:34;;;;;;;9.88;3.72;;;5.80;99.90;;;;;;5010303;28;20022;-82
2022/11/27 07:23:02;;;;;;;6.75;3.83;;;5.90;99.90;;;;;;5021490;28;20022;-83
2022/11/27 07:25:28;;;;;;;8.45;3.92;;;5.90;99.90;;;;;;5001482;28;20050;-82
2022/11/27 07:27:54;;;;;;;8.23;3.55;;;5.90;99.90;;;;;;4997027;28;20161;-82
2022/11/27 07:30:20;;;;;;;11.68;5.22;;;5.90;99.90;;;;;;4999592;28;20233;-82
2022/11/27 07:32:45;;;;;;;8.77;4.57;;;6.00;99.90;;;;;;5003395;28;20710;-83
2022/11/27 07:35:11;;;;;;;5.70;2.75;;;6.00;99.90;;;;;;4996712;28;20362;-83
2022/11/27 07:37:38;;;;;;;6.78;3.60;;;6.00;99.90;;;;;;4993609;28;20030;-83
2022/11/27 07:40:05;;;;;;;8.57;3.80;;;6.10;99.90;;;;;;4990916;28;20137;-85
2022/11/27 07:42:30;;;;;;;13.15;4.45;;;6.10;99.90;;;;;;5007992;28;20535;-83
2022/11/27 07:44:56;;;;;;;8.82;3.75;;;6.20;99.90;;;;;;5023831;28;20038;-83
2022/11/27 07:47:21;;;;;;;7.10;4.13;;;6.20;99.90;;;;;;5007105;28;20033;-83
2022/11/27 07:49:47;;;;;;;4.10;2.88;;;6.20;99.90;;;;;;5012441;28;20052;-82
2022/11/27 07:52:13;;;;;;;11.95;4.25;;;6.20;99.90;;;;;;5008397;28;20065;-83
2022/11/27 07:54:38;;;;;;;7.03;4.20;;;6.30;99.90;;;;;;4992752;28;20061;-83
2022/11/27 07:57:04;;;;;;;3.67;2.50;;;6.30;99.90;;;;;;5009089;28;20434;-82
2022/11/27 07:59:29;;;;;;;11.00;4.50;;;6.30;99.90;;;;;;5013377;28;20489;-83
2022/11/27 08:01:55;;;;;;;10.25;3.80;;;6.30;99.90;;;;;;5010081;28;20033;-82
2022/11/27 08:04:20;;;;;;;9.30;4.18;;;6.40;99.90;;;;;;5009534;28;20041;-82
2022/11/27 08:06:47;;;;;;;8.15;4.00;;;6.40;99.90;;;;;;5010583;28;20483;-83
2022/11/27 08:09:13;;;;;;;6.65;3.45;;;6.40;99.90;;;;;;5014290;28;20052;-83
2022/11/27 08:11:38;;;;;;;6.72;3.22;;;6.40;99.90;;;;;;5025436;28;20068;-83
2022/11/27 08:14:06;;;;;;;8.10;3.38;;;6.50;99.90;;;;;;5018683;28;20065;-83
2022/11/27 08:16:34;;;;;;;5.75;3.40;;;6.50;99.90;;;;;;5010673;28;20030;-83
2022/11/27 08:19:06;;;;;;;7.18;2.83;;;6.60;99.90;;;;;;4985403;28;20068;-83
2022/11/27 08:21:31;;;;;;;7.25;3.30;;;6.70;99.90;;;;;;5011633;28;20029;-84
2022/11/27 08:23:57;;;;;;;4.70;2.08;;;6.70;99.90;;;;;;5010913;28;20452;-83
2022/11/27 08:26:23;;;;;;;4.93;3.17;;;6.70;99.90;;;;;;5008819;28;20068;-83
2022/11/27 08:28:51;;;;;;;5.15;3.58;;;6.80;99.90;;;;;;5019312;28;20041;-85
2022/11/27 08:31:17;;;;;;;5.00;2.05;;;6.80;99.90;;;;;;5010548;28;20025;-87
2022/11/27 08:33:42;;;;;;;5.85;3.10;;;6.90;99.90;;;;;;5011671;28;20565;-85
2022/11/27 08:36:08;;;;;;;5.65;3.00;;;6.90;99.90;;;;;;5024208;28;20034;-85
2022/11/27 08:38:34;;;;;;;10.57;3.38;;;7.00;99.90;;;;;;5011354;28;20030;-84
2022/11/27 08:41:01;;;;;;;7.60;2.70;;;7.00;99.90;;;;;;5019648;28;20052;-85
2022/11/27 08:43:27;;;;;;;10.90;3.63;;;7.10;99.90;;;;;;5009737;28;20101;-85
2022/11/27 08:45:53;;;;;;;7.03;2.85;;;7.10;99.90;;;;;;5004893;28;20504;-85
2022/11/27 08:48:19;;;;;;;4.75;2.65;;;7.20;99.90;;;;;;5022473;28;20036;-85
2022/11/27 08:50:44;;;;;;;6.90;2.38;;;7.20;99.90;;;;;;4976477;28;20033;-84
2022/11/27 08:53:10;;;;;;;9.25;3.13;;;7.30;99.90;;;;;;5003844;28;20034;-84
2022/11/27 08:55:38;;;;;;;5.47;2.42;;;7.40;99.90;;;;;;4990743;28;20037;-86
2022/11/27 08:58:06;;;;;;;8.43;3.13;;;7.40;99.90;;;;;;5001918;28;20033;-85
2022/11/27 09:00:33;;;;;;;6.05;2.75;;;7.50;99.90;;;;;;4992909;28;20058;-85
2022/11/27 09:02:59;;;;;;;2.85;1.80;;;7.50;99.90;;;;;;4997889;28;20034;-84
2022/11/27 09:05:25;;;;;;;9.10;2.42;;;7.60;99.90;;;;;;4981770;28;20056;-85
2022/11/27 09:07:51;;;;;;;5.38;2.60;;;7.60;99.90;;;;;;4989410;28;20062;-86
2022/11/27 09:10:16;;;;;;;8.07;3.10;;;7.70;99.90;;;;;;4997025;28;20069;-87
2022/11/27 09:12:43;;;;;;;4.28;2.20;;;7.70;99.90;;;;;;4989031;28;20038;-86
2022/11/27 09:15:12;;;;;;;4.70;2.53;;;7.80;99.90;;;;;;4971954;28;20026;-86
2022/11/27 09:17:39;;;;;;;7.70;2.83;;;7.80;99.90;;;;;;4973056;28;20068;-85
2022/11/27 09:20:05;;;;;;;5.40;2.53;;;7.90;99.90;;;;;;4999428;28;20436;-84
2022/11/27 09:22:33;;;;;;;8.82;2.55;;;8.00;99.90;;;;;;4969184;28;20030;-86
2022/11/27 09:24:58;;;;;;;4.50;2.40;;;8.00;99.90;;;;;;4996763;28;20050;-86
2022/11/27 09:27:24;;;;;;;5.10;2.78;;;8.00;99.90;;;;;;4990918;28;20537;-84
2022/11/27 09:29:49;;;;;;;4.95;1.98;;;8.00;99.90;;;;;;5017002;28;20386;-85
2022/11/27 09:32:15;;;;;;;7.45;2.80;;;8.10;99.90;;;;;;4996848;28;20034;-86
2022/11/27 09:34:40;;;;;;;6.50;2.55;;;8.10;99.90;;;;;;4984223;28;20037;-85
2022/11/27 09:37:06;;;;;;;4.80;2.38;;;8.10;99.90;;;;;;4990034;28;20112;-85
2022/11/27 09:39:32;;;;;;;9.43;2.88;;;8.10;99.90;;;;;;4981749;28;20811;-84
2022/11/27 09:41:59;;;;;;;5.88;2.92;;;8.10;99.90;;;;;;4980430;28;20469;-84
2022/11/27 09:44:38;;;;;;;5.35;2.13;;;8.20;99.90;;;;;;5011488;28;20045;-86
2022/11/27 09:47:43;;;;;;;3.75;2.58;;;8.20;99.90;;;;;;4990668;28;20486;-82
2022/11/27 09:50:23;;;;;;;7.25;2.80;;;8.20;99.90;;;;;;4994754;28;20040;-84
2022/11/27 09:53:12;;;;;;;6.47;2.75;;;8.30;99.90;;;;;;4968354;28;20062;-85
2022/11/27 09:55:41;;;;;;;5.65;3.17;;;8.30;99.90;;;;;;4996619;28;20109;-84
2022/11/27 09:58:14;;;;;;;4.70;2.58;;;8.40;99.90;;;;;;4997011;28;20029;-86
2022/11/27 10:00:40;;;;;;;6.75;3.03;;;8.50;99.90;;;;;;4987732;28;20046;-84
2022/11/27 10:03:11;;;;;;;6.00;2.90;;;8.50;99.90;;;;;;4992778;28;20389;-85
2022/11/27 10:06:05;;;;;;;4.88;2.78;;;8.50;99.90;;;;;;4987680;28;20501;-85
2022/11/27 10:08:40;;;;;;;6.72;2.78;;;8.60;99.90;;;;;;4984909;28;20034;-85
2022/11/27 10:11:46;;;;;;;8.33;3.80;;;8.60;99.90;;;;;;5027771;28;20033;-85
2022/11/27 10:14:35;;;;;;;7.38;2.92;;;8.70;99.90;;;;;;4989613;28;20558;-85
2022/11/27 10:17:41;;;;;;;4.88;2.42;;;8.80;99.90;;;;;;4980603;28;20100;-83
2022/11/27 10:20:17;;;;;;;6.05;2.65;;;8.90;99.90;;;;;;4997285;28;20433;-85
2022/11/27 10:23:10;;;;;;;7.65;3.13;;;9.00;99.90;;;;;;5026588;28;20021;-84
2022/11/27 10:25:44;;;;;;;4.07;2.85;;;9.00;99.90;;;;;;5007023;28;20045;-84
2022/11/27 10:28:17;;;;;;;6.45;3.03;;;9.00;99.90;;;;;;4993652;28;20049;-85
2022/11/27 10:30:55;;;;;;;7.65;3.22;;;9.10;99.90;;;;;;5022968;28;20030;-85
2022/11/27 10:33:36;;;;;;;6.55;3.45;;;9.10;99.90;;;;;;5004645;28;20196;-84
2022/11/27 10:36:01;;;;;;;4.85;3.25;;;9.20;99.90;;;;;;4993824;28;20112;-80
2022/11/27 10:38:27;;;;;;;7.47;2.88;;;9.30;99.90;;;;;;5009257;28;20163;-84
2022/11/27 10:41:15;;;;;;;5.20;2.55;;;9.30;99.90;;;;;;5007106;28;20029;-86
2022/11/27 10:43:41;;;;;;;6.93;3.22;;;9.40;99.90;;;;;;5007463;28;20048;-83
2022/11/27 10:46:42;;;;;;;3.35;2.08;;;9.40;99.90;;;;;;5021100;28;20038;-84
2022/11/27 10:49:08;;;;;;;5.85;3.35;;;9.40;99.90;;;;;;4988144;28;20034;-84
2022/11/27 10:51:35;;;;;;;5.10;2.72;;;9.40;99.90;;;;;;4983401;28;20041;-83
2022/11/27 10:54:02;;;;;;;10.18;3.30;;;9.50;99.90;;;;;;5006551;28;20124;-81
2022/11/27 10:56:49;;;;;;;6.43;2.80;;;9.60;99.90;;;;;;5000753;28;20041;-84
2022/11/27 10:59:20;;;;;;;4.30;2.53;;;9.60;99.90;;;;;;5000229;28;20481;-84
2022/11/27 11:01:49;;;;;;;5.90;3.13;;;9.60;99.90;;;;;;5005554;28;20525;-84
2022/11/27 11:04:20;;;;;;;4.40;2.30;;;9.60;99.90;;;;;;4989668;28;20038;-84
2022/11/27 11:06:47;;;;;;;3.83;2.60;;;9.70;99.90;;;;;;4987332;28;20061;-83
2022/11/27 11:09:18;;;;;;;4.38;2.95;;;9.70;99.90;;;;;;4994754;28;20482;-83
2022/11/27 11:11:43;;;;;;;4.85;3.00;;;9.70;99.90;;;;;;4982599;28;20604;-82
2022/11/27 11:14:15;;;;;;;3.40;2.25;;;9.70;99.90;;;;;;4995206;28;20046;-82
2022/11/27 11:16:41;;;;;;;6.35;3.10;;;9.70;99.90;;;;;;4998666;28;20556;-83
2022/11/27 11:19:22;;;;;;;6.78;3.40;;;9.70;99.90;;;;;;4971279;28;20030;-83
2022/11/27 11:21:48;;;;;;;5.10;2.67;;;9.70;99.90;;;;;;5004505;28;20112;-82
2022/11/27 11:24:17;;;;;;;8.35;3.17;;;9.70;99.90;;;;;;4999731;28;20896;-82
2022/11/27 11:26:43;;;;;;;6.18;2.85;;;9.70;99.90;;;;;;4971782;28;20445;-82
2022/11/27 11:29:39;;;;;;;7.13;2.53;;;9.60;99.90;;;;;;5000741;28;20109;-83
2022/11/27 11:32:09;;;;;;;5.65;3.03;;;9.60;99.90;;;;;;5002134;28;20030;-82
2022/11/27 11:34:35;;;;;;;6.53;3.25;;;9.70;99.90;;;;;;4998376;28;20077;-82
2022/11/27 11:37:21;;;;;;;7.53;3.53;;;9.60;99.90;;;;;;4997967;28;20085;-83
2022/11/27 11:39:51;;;;;;;;;;;9.70;99.90;;;;;;4984022;28;20042;-82
2022/11/27 11:42:22;;;;;;;8.75;3.13;;;9.80;99.90;;;;;;4997760;28;19995;-82
2022/11/27 11:45:15;;;;;;;6.80;3.83;;;9.70;99.90;;;;;;4982822;28;20373;-82
2022/11/27 11:47:48;;;;;;;5.65;2.70;;;9.70;99.90;;;;;;4653206;28;10000374;-82
2022/11/27 11:50:15;;;;;;;5.82;2.90;;;9.60;99.90;;;;;;4983206;28;20030;-82
2022/11/27 11:52:53;;;;;;;8.07;3.17;;;9.50;99.90;;;;;;4978161;28;20023;-82
2022/11/27 11:55:19;;;;;;;4.90;2.78;;;9.50;99.90;;;;;;4993912;28;20518;-82
2022/11/27 11:58:22;;;;;;;4.22;2.53;;;9.50;99.90;;;;;;4982433;28;20034;-83
2022/11/27 12:00:56;;;;;;;7.13;2.72;;;9.50;99.90;;;;;;4993170;28;20035;-82
2022/11/27 12:03:40;;;;;;;5.85;2.70;;;9.40;99.90;;;;;;4994089;28;20030;-83
2022/11/27 12:06:17;;;;;;;3.83;2.38;;;9.40;99.90;;;;;;4995969;28;20568;-83
2022/11/27 12:08:54;;;;;;;6.55;2.30;;;9.30;99.90;;;;;;4998229;28;20093;-82
2022/11/27 12:11:28;;;;;;;3.35;2.13;;;9.30;99.90;;;;;;4983345;28;20072;-82
2022/11/27 12:14:10;;;;;;;6.13;3.22;;;9.30;99.90;;;;;;4982308;28;20038;-83
2022/11/27 12:16:47;;;;;;;3.03;2.22;;;9.30;99.90;;;;;;5006833;28;20036;-82
2022/11/27 12:19:43;;;;;;;3.90;2.58;;;9.30;99.90;;;;;;5007139;28;20022;-83
2022/11/27 12:22:49;;;;;;;7.63;2.55;;;9.20;99.90;;;;;;5022609;28;20770;-83
2022/11/27 12:25:24;;;;;;;4.18;2.70;;;9.20;99.90;;;;;;5005719;28;20045;-83
2022/11/27 12:28:28;;;;;;;5.32;1.85;;;9.20;99.90;;;;;;5017516;28;20029;-82
2022/11/27 12:31:06;;;;;;;5.20;2.63;;;9.10;99.90;;;;;;5005567;28;20478;-82
2022/11/27 12:33:50;;;;;;;8.55;2.97;;;9.00;99.90;;;;;;5016147;28;20064;-82
2022/11/27 12:36:22;;;;;;;3.58;2.30;;;9.10;99.90;;;;;;5008202;28;20547;-82
2022/11/27 12:39:02;;;;;;;5.05;2.42;;;9.10;99.90;;;;;;5001532;28;20482;-81
2022/11/27 12:41:43;;;;;;;3.85;2.63;;;9.00;99.90;;;;;;4984601;28;20501;-83
2022/11/27 12:44:21;;;;;;;5.20;2.03;;;9.10;99.90;;;;;;4980667;28;20040;-83
2022/11/27 12:46:52;;;;;;;4.00;2.45;;;9.10;99.90;;;;;;5003695;28;20093;-82
2022/11/27 12:49:40;;;;;;;4.38;2.50;;;9.10;99.90;;;;;;4986766;28;20026;-82
2022/11/27 12:52:20;;;;;;;4.95;2.28;;;9.10;99.90;;;;;;4998220;28;20466;-83
2022/11/27 12:55:02;;;;;;;4.50;2.30;;;9.20;99.90;;;;;;4976269;28;20033;-82
2022/11/27 12:57:34;;;;;;;4.75;2.17;;;9.20;99.90;;;;;;4999416;28;20037;-82
2022/11/27 13:00:05;;;;;;;5.53;2.67;;;9.30;99.90;;;;;;4999617;28;20030;-81
2022/11/27 13:02:43;;;;;;;3.72;2.33;;;9.30;99.90;;;;;;4994598;28;20053;-81
2022/11/27 13:05:15;;;;;;;4.15;2.60;;;9.30;99.90;;;;;;4983822;28;20034;-81
2022/11/27 13:07:50;;;;;;;3.60;2.10;;;9.30;99.90;;;;;;5022249;28;20026;-82
2022/11/27 13:10:26;;;;;;;3.60;2.13;;;9.40;99.90;;;;;;4992171;28;20454;-81
2022/11/27 13:13:02;;;;;;;4.43;2.20;;;9.40;99.90;;;;;;4998432;28;20034;-82